Saturday, October 20, 2018, 7:07 AM EDT
Back to Local

KLOM, Philadelphia, Wings Field Airport

Location: Blue Bell, PA, United States Lat: 40.138
Local Time: 7:07 AM EDT (11:07 GMT) Lon: -75.265
Time Zone: US/Eastern Elev: 301 ft

Show me the last for .
Show Coded

Time T Td Feel RH Dir Speed Gust Alt SLP Vis Weather Sky Remarks
2018-10-20 06:55 52 52 - 100 240° 6 - 29.78 - 10 OVC039 None
2018-10-20 06:35 52 52 - 100 220° 5 - 29.78 - 10 BKN037 OVC047 None
2018-10-20 06:15 52 52 - 100 210° 5 - 29.78 - 10 BKN037 OVC044 None
2018-10-20 05:55 52 52 - 100 210° 7 - 29.78 - 10 BKN042 OVC048 None
2018-10-20 05:35 52 52 - 100 200° 6 - 29.79 - 10 SCT040 OVC048 None
2018-10-20 05:15 52 52 - 100 220° 7 - 29.80 - 10 BKN048 OVC050 None
2018-10-20 04:55 50 50 49 100 220° 3 - 29.81 - 10 OVC055 None
2018-10-20 04:35 50 50 48 100 180° 5 - 29.80 - 7 OVC055 None
2018-10-20 04:15 50 50 48 100 180° 6 - 29.82 - 7 OVC070 None
2018-10-20 03:55 50 50 - 100 - Calm - 29.82 - 10 OVC070 None
2018-10-20 03:35 50 50 - 100 - Calm - 29.83 - 10 OVC080 None
2018-10-20 03:15 50 50 - 100 - Calm - 29.85 - 10 OVC080 None
2018-10-20 02:55 52 50 - 93 - Calm - 29.86 - 10 OVC090 None
2018-10-20 02:35 52 50 - 93 - Calm - 29.87 - 10 OVC090 None
2018-10-20 02:15 52 48 - 87 - Calm - 29.87 - 10 OVC100 None
2018-10-20 01:55 52 46 - 81 210° 6 - 29.87 - 10 OVC100 None
2018-10-20 01:35 54 46 - 76 220° 5 - 29.88 - 10 OVC100 None
2018-10-20 01:15 54 45 - 71 220° 5 - 29.89 - 10 SCT095 OVC110 None
2018-10-20 00:55 54 45 - 71 210° 7 - 29.89 - 10 OVC110 None
2018-10-20 00:35 54 45 - 71 200° 5 - 29.90 - 10 OVC110 None
2018-10-20 00:15 54 45 - 71 210° 6 - 29.91 - 10 OVC110 None
2018-10-19 23:55 54 45 - 71 200° 7 - 29.92 - 10 SCT090 OVC120 None
2018-10-19 23:35 54 45 - 71 200° 6 - 29.93 - 10 BKN110 None
2018-10-19 23:15 54 45 - 71 200° 8 - 29.94 - 10 SCT120 None
2018-10-19 22:55 54 43 - 66 210° 6 - 29.96 - 10 CLR None
2018-10-19 22:35 54 43 - 66 230° 7 - 29.98 - 10 CLR None
2018-10-19 22:15 54 43 - 66 210° 9 - 29.98 - 10 CLR None
2018-10-19 21:55 54 43 - 66 200° 7 - 29.99 - 10 CLR None
2018-10-19 21:35 52 43 - 71 210° 8 - 30.01 - 10 CLR None
2018-10-19 21:15 52 43 - 71 200° 5 - 30.02 - 10 CLR None
2018-10-19 20:55 52 43 - 71 190° 3 - 30.02 - 10 CLR None
2018-10-19 20:35 52 43 - 71 210° 3 - 30.04 - 10 CLR None
2018-10-19 20:15 52 43 - 71 - Calm - 30.03 - 10 CLR None
2018-10-19 19:55 54 43 - 66 200° 3 - 30.05 - 10 CLR None
2018-10-19 19:35 54 43 - 66 200° 5 - 30.05 - 10 CLR None
2018-10-19 19:15 54 43 - 66 210° 5 - 30.06 - 10 CLR None
2018-10-19 18:55 54 43 - 66 - Calm - 30.07 - 10 CLR None
2018-10-19 18:35 54 43 - 66 210° 3 - 30.06 - 10 CLR None
2018-10-19 18:15 54 41 - 62 220° 3 - 30.08 - 10 CLR None
2018-10-19 17:55 55 41 - 58 210° 3 - 30.08 - 10 CLR None
2018-10-19 17:35 55 41 - 58 210° 5 - 30.09 - 10 CLR None
2018-10-19 17:15 55 41 - 58 210° 3 - 30.09 - 10 CLR None
2018-10-19 16:50 55 41 - 58 210° 7 - 30.10 - 10 CLR None
2018-10-19 16:35 55 39 - 54 220° 6 - 30.11 - 10 CLR None
2018-10-19 16:15 55 39 - 54 220° 7 - 30.12 - 10 CLR None
2018-10-19 15:55 55 37 - 50 220° 7 - 30.12 - 10 CLR None
2018-10-19 15:35 57 39 - 50 200° 8 - 30.13 - 10 CLR None
2018-10-19 15:15 57 37 - 47 210° 9 - 30.14 - 10 CLR None
2018-10-19 14:55 59 36 - 41 200° 8 - 30.15 - 10 CLR None
2018-10-19 14:35 59 36 - 41 210° 8 - 30.16 - 10 CLR None
2018-10-19 14:15 57 36 - 44 240° 8 - 30.18 - 10 CLR None
2018-10-19 13:55 59 36 - 41 240° 8 - 30.20 - 10 CLR None
2018-10-19 13:35 57 36 - 44 230° 8 - 30.21 - 10 CLR None
2018-10-19 13:15 57 34 - 41 250° 8 - 30.23 - 10 CLR None
2018-10-19 12:55 59 34 - 38 240° 8 - 30.24 - 10 CLR None
2018-10-19 12:35 57 34 - 41 250° 8 16 30.26 - 10 CLR None
2018-10-19 12:15 55 34 - 43 260° 6 - 30.27 - 10 CLR None
2018-10-19 11:55 55 34 - 43 260° 10 - 30.29 - 10 CLR None
2018-10-19 11:35 54 34 - 46 250° 7 - 30.30 - 10 CLR None
2018-10-19 11:15 54 34 - 46 240° 8 - 30.31 - 10 CLR None
2018-10-19 10:55 54 34 - 46 240° 6 - 30.32 - 10 CLR None
2018-10-19 10:35 52 34 - 50 240° 7 - 30.33 - 10 CLR None
2018-10-19 10:15 50 36 46 57 240° 9 - 30.33 - 10 CLR None
2018-10-19 09:55 48 36 47 61 260° 3 - 30.34 - 10 CLR None
2018-10-19 09:35 46 36 45 65 250° 3 - 30.35 - 10 CLR None
2018-10-19 09:15 45 36 43 70 240° 3 - 30.35 - 10 CLR None
2018-10-19 08:55 43 36 - 75 - Calm - 30.36 - 10 CLR None
2018-10-19 08:35 41 36 - 80 - Calm - 30.36 - 10 CLR None
2018-10-19 08:15 37 36 - 93 - Calm - 30.36 - 10 CLR None
2018-10-19 07:55 36 36 - 100 - Calm - 30.36 - 10 CLR None
2018-10-19 07:35 34 34 - 100 - Calm - 30.36 - 7 CLR None
2018-10-19 07:15 32 32 - 100 - Calm - 30.36 - 10 CLR None

Support USWX by starting your Amazon purchase here.